Terminal Aerodrome Forecast
Issued by NWS

Home | Current Version | Previous Version | Text Only | Print | Product List | Glossary On
Versions: 1 2 3 4 5 6 7 8 9 10 11 12 13 14
275
FTUS41 KPBZ 301138
TAFDUJ
TAF
KDUJ 301138Z 3012/3112 00000KT 6SM BR SCT090
      TEMPO 3012/3013 3SM BR
     FM301300 27006KT P6SM SCT060
     FM310800 VRB03KT 4SM BR SKC=

USA.gov is the U.S. government's official web portal to all federal, state and local government web resources and services.